createdAt,value
2018-05-13T00:00:05.394Z,0
2018-05-13T00:01:05.388Z,0
2018-05-13T00:02:05.120Z,0
2018-05-13T00:03:05.343Z,0
2018-05-13T00:04:05.364Z,0
2018-05-13T00:05:05.090Z,0
2018-05-13T00:06:05.376Z,0
2018-05-13T00:07:05.059Z,0
2018-05-13T00:08:05.091Z,0
2018-05-13T00:09:04.785Z,0
2018-05-13T00:10:05.362Z,0
2018-05-13T00:11:05.295Z,0
2018-05-13T00:12:05.341Z,0
2018-05-13T00:13:05.304Z,0
2018-05-13T00:14:05.325Z,0
2018-05-13T00:15:05.281Z,0
2018-05-13T00:16:05.061Z,0
2018-05-13T00:28:04.992Z,0
2018-05-13T00:29:04.719Z,0
2018-05-13T00:30:04.945Z,0
2018-05-13T00:31:04.751Z,0
2018-05-13T00:32:05.244Z,0
2018-05-13T00:33:04.986Z,0
2018-05-13T00:34:05.176Z,0
2018-05-13T00:35:04.715Z,0
2018-05-13T00:36:04.404Z,0
2018-05-13T00:37:05.209Z,0
2018-05-13T00:38:05.369Z,0
2018-05-13T00:39:05.204Z,0
2018-05-13T00:40:05.182Z,0
2018-05-13T00:41:05.160Z,0
2018-05-13T00:42:04.937Z,0
2018-05-13T00:43:04.931Z,0
2018-05-13T00:44:05.167Z,0
2018-05-13T00:45:05.129Z,0
2018-05-13T00:46:04.626Z,0
2018-05-13T00:47:05.153Z,0
2018-05-13T00:48:04.632Z,0
2018-05-13T00:49:05.157Z,0
2018-05-13T00:50:04.590Z,0
2018-05-13T00:51:05.138Z,0
2018-05-13T00:52:05.083Z,0
2018-05-13T00:53:04.879Z,0
2018-05-13T00:54:04.825Z,0
2018-05-13T00:55:04.894Z,0
2018-05-13T00:56:04.837Z,0
2018-05-13T00:57:04.588Z,0
2018-05-13T00:58:04.556Z,0
2018-05-13T00:59:05.073Z,0
2018-05-13T01:00:04.813Z,0
2018-05-13T01:01:04.567Z,0
2018-05-13T01:02:05.088Z,0
2018-05-13T01:03:04.791Z,0
2018-05-13T01:04:04.529Z,0
2018-05-13T01:05:04.801Z,0
2018-05-13T01:06:05.018Z,0
2018-05-13T01:07:05.050Z,0
2018-05-13T01:08:04.750Z,0
2018-05-13T01:09:04.791Z,0
2018-05-13T01:10:04.746Z,0
2018-05-13T01:11:05.048Z,0
2018-05-13T01:12:04.754Z,0
2018-05-13T01:13:04.512Z,0
2018-05-13T01:14:04.986Z,0
2018-05-13T01:15:04.739Z,0
2018-05-13T01:16:04.756Z,0
2018-05-13T01:17:04.995Z,0
2018-05-13T01:18:04.490Z,0
2018-05-13T01:19:04.962Z,0
2018-05-13T01:20:04.963Z,0
2018-05-13T01:21:07.482Z,0
2018-05-13T01:22:04.971Z,0
2018-05-13T01:23:04.933Z,0
2018-05-13T01:24:04.714Z,0
2018-05-13T01:25:04.701Z,0
2018-05-13T01:26:04.778Z,0
2018-05-13T01:27:04.915Z,0
2018-05-13T01:28:04.892Z,0
2018-05-13T01:29:04.928Z,0
2018-05-13T01:30:04.915Z,0
2018-05-13T01:31:04.906Z,0
2018-05-13T01:32:04.667Z,0
2018-05-13T01:33:04.883Z,0
2018-05-13T01:34:04.681Z,0
2018-05-13T01:35:04.608Z,0
2018-05-13T01:36:04.650Z,0
2018-05-13T01:37:04.087Z,0
2018-05-13T01:38:04.619Z,0
2018-05-13T01:39:04.844Z,0
2018-05-13T01:40:04.890Z,0
2018-05-13T01:41:04.609Z,0
2018-05-13T01:42:04.600Z,0
2018-05-13T01:43:04.324Z,0
2018-05-13T01:44:04.561Z,0
2018-05-13T01:45:04.350Z,0
2018-05-13T01:46:04.603Z,0
2018-05-13T01:47:04.079Z,0
2018-05-13T01:48:04.029Z,0
2018-05-13T01:49:04.568Z,0
2018-05-13T01:50:04.268Z,0
2018-05-13T01:51:04.823Z,0
2018-05-13T01:52:04.513Z,0
2018-05-13T01:53:04.562Z,0
2018-05-13T01:54:04.799Z,0
2018-05-13T01:55:04.798Z,0
2018-05-13T01:56:04.747Z,0
2018-05-13T01:57:04.807Z,0
2018-05-13T01:58:04.510Z,0
2018-05-13T01:59:04.521Z,0
2018-05-13T02:00:04.568Z,0
2018-05-13T02:01:04.790Z,0
2018-05-13T02:02:04.744Z,0
2018-05-13T02:03:04.020Z,0
2018-05-13T02:04:04.209Z,0
2018-05-13T02:05:04.488Z,0
2018-05-13T02:06:04.690Z,0
2018-05-13T02:07:04.474Z,0
2018-05-13T02:08:17.163Z,0
2018-05-13T02:09:04.741Z,0
2018-05-13T02:10:04.441Z,0
2018-05-13T02:11:04.472Z,0
2018-05-13T02:12:04.413Z,0
2018-05-13T02:13:04.178Z,0
2018-05-13T02:14:04.679Z,0
2018-05-13T02:15:04.429Z,0
2018-05-13T02:16:04.446Z,0
2018-05-13T02:17:04.401Z,0
2018-05-13T02:18:04.652Z,0
2018-05-13T02:19:04.108Z,0
2018-05-13T02:20:04.412Z,0
2018-05-13T02:21:04.635Z,0
2018-05-13T02:22:04.133Z,0
2018-05-13T02:23:04.131Z,0
2018-05-13T02:24:04.600Z,0
2018-05-13T02:25:04.129Z,0
2018-05-13T02:26:04.363Z,0
2018-05-13T02:27:04.372Z,0
2018-05-13T02:28:04.327Z,0
2018-05-13T02:29:04.579Z,0
2018-05-13T02:30:04.330Z,0
2018-05-13T02:31:04.343Z,0
2018-05-13T02:32:04.358Z,0
2018-05-13T02:33:04.563Z,0
2018-05-13T02:34:04.329Z,0
2018-05-13T02:35:04.279Z,0
2018-05-13T02:36:04.585Z,0
2018-05-13T02:37:04.288Z,0
2018-05-13T02:38:04.319Z,0
2018-05-13T02:39:04.523Z,0
2018-05-13T02:40:04.577Z,0
2018-05-13T02:41:04.247Z,0
2018-05-13T02:42:04.531Z,0
2018-05-13T02:43:04.244Z,0
2018-05-13T02:44:04.030Z,0
2018-05-13T02:45:04.545Z,0
2018-05-13T02:46:04.244Z,0
2018-05-13T02:47:03.977Z,0
2018-05-13T02:48:04.259Z,0
2018-05-13T02:49:04.489Z,0
2018-05-13T02:50:04.490Z,0
2018-05-13T02:51:04.542Z,0
2018-05-13T02:52:16.979Z,0
2018-05-13T02:53:04.195Z,0
2018-05-13T02:54:04.593Z,0
2018-05-13T02:55:04.562Z,0
2018-05-13T02:56:04.286Z,0
2018-05-13T02:57:04.175Z,0
2018-05-13T02:58:04.444Z,0
2018-05-13T02:59:03.654Z,0
2018-05-13T03:00:04.211Z,0
2018-05-13T03:01:04.436Z,0
2018-05-13T03:02:04.461Z,0
2018-05-13T03:03:03.627Z,5
2018-05-13T03:04:04.124Z,5
2018-05-13T03:05:04.150Z,5
2018-05-13T03:06:04.149Z,5
2018-05-13T03:07:04.165Z,5
2018-05-13T03:08:04.096Z,5
2018-05-13T03:09:04.132Z,5
2018-05-13T03:10:04.083Z,5
2018-05-13T03:11:04.377Z,10
2018-05-13T03:12:04.331Z,10
2018-05-13T03:13:04.411Z,10
2018-05-13T03:14:16.822Z,10
2018-05-13T03:15:04.346Z,10
2018-05-13T03:16:04.100Z,10
2018-05-13T03:17:04.082Z,15
2018-05-13T03:18:03.801Z,15
2018-05-13T03:19:04.199Z,15
2018-05-13T03:20:04.042Z,15
2018-05-13T03:21:04.315Z,15
2018-05-13T03:22:04.297Z,20
2018-05-13T03:23:04.322Z,20
2018-05-13T03:24:03.751Z,20
2018-05-13T03:25:03.790Z,20
2018-05-13T03:26:04.249Z,25
2018-05-13T03:27:04.024Z,25
2018-05-13T03:28:03.731Z,25
2018-05-13T03:29:03.775Z,30
2018-05-13T03:30:04.010Z,30
2018-05-13T03:31:04.115Z,30
2018-05-13T03:32:04.006Z,35
2018-05-13T03:33:03.975Z,35
2018-05-13T03:34:03.992Z,35
2018-05-13T03:35:03.985Z,35
2018-05-13T03:36:03.989Z,40
2018-05-13T03:37:04.208Z,40
2018-05-13T03:38:03.949Z,40
2018-05-13T03:39:03.978Z,45
2018-05-13T03:40:03.410Z,45
2018-05-13T03:41:04.203Z,50
2018-05-13T03:42:03.898Z,50
2018-05-13T03:43:03.937Z,55
2018-05-13T03:44:03.647Z,55
2018-05-13T03:45:03.952Z,60
2018-05-13T03:46:03.907Z,60
2018-05-13T03:47:03.928Z,60
2018-05-13T03:48:04.124Z,65
2018-05-13T03:49:03.888Z,65
2018-05-13T03:50:03.649Z,70
2018-05-13T03:51:03.890Z,75
2018-05-13T03:52:04.125Z,80
2018-05-13T03:53:04.136Z,85
2018-05-13T03:54:03.859Z,90
2018-05-13T03:55:03.897Z,95
2018-05-13T03:56:03.827Z,95
2018-05-13T03:57:03.863Z,95
2018-05-13T03:58:03.812Z,100
2018-05-13T03:59:03.861Z,105
2018-05-13T04:00:03.809Z,110
2018-05-13T04:01:03.853Z,115
2018-05-13T04:02:03.821Z,120
2018-05-13T04:03:04.084Z,120
2018-05-13T04:04:03.538Z,120
2018-05-13T04:05:03.837Z,125
2018-05-13T04:06:03.552Z,130
2018-05-13T04:07:03.270Z,135
2018-05-13T04:08:03.515Z,140
2018-05-13T04:09:03.553Z,140
2018-05-13T04:10:04.056Z,145
2018-05-13T04:11:04.080Z,155
2018-05-13T04:12:03.755Z,160
2018-05-13T04:13:04.037Z,165
2018-05-13T04:14:03.737Z,165
2018-05-13T04:15:04.038Z,170
2018-05-13T04:16:04.004Z,175
2018-05-13T04:17:03.812Z,185
2018-05-13T04:18:03.496Z,185
2018-05-13T04:19:03.768Z,190
2018-05-13T04:20:03.971Z,195
2018-05-13T04:21:03.985Z,200
2018-05-13T04:22:03.998Z,205
2018-05-13T04:23:03.748Z,210
2018-05-13T04:24:03.767Z,215
2018-05-13T04:25:03.712Z,220
2018-05-13T04:26:03.723Z,225
2018-05-13T04:27:03.691Z,230
2018-05-13T04:28:04.007Z,235
2018-05-13T04:29:03.716Z,245
2018-05-13T04:30:03.995Z,255
2018-05-13T04:31:03.477Z,255
2018-05-13T04:32:03.694Z,260
2018-05-13T04:33:03.994Z,265
2018-05-13T04:34:03.709Z,275
2018-05-13T04:35:04.013Z,280
2018-05-13T04:36:03.681Z,290
2018-05-13T04:37:03.696Z,300
2018-05-13T04:38:03.707Z,310
2018-05-13T04:39:03.714Z,315
2018-05-13T04:40:03.981Z,320
2018-05-13T04:41:03.680Z,325
2018-05-13T04:42:03.441Z,335
2018-05-13T04:43:03.418Z,340
2018-05-13T04:44:03.481Z,340
2018-05-13T04:45:03.680Z,350
2018-05-13T04:46:03.723Z,360
2018-05-13T04:47:03.681Z,360
2018-05-13T04:48:03.981Z,375
2018-05-13T04:49:03.922Z,380
2018-05-13T04:50:03.955Z,385
2018-05-13T04:51:03.944Z,395
2018-05-13T04:52:03.747Z,400
2018-05-13T04:53:03.722Z,410
2018-05-13T04:54:03.705Z,420
2018-05-13T04:55:03.703Z,425
2018-05-13T04:56:03.728Z,435
2018-05-13T04:57:03.699Z,445
2018-05-13T04:58:03.706Z,455
2018-05-13T04:59:03.942Z,460
2018-05-13T05:00:04.002Z,465
2018-05-13T05:01:03.970Z,475
2018-05-13T05:02:03.753Z,480
2018-05-13T05:03:03.963Z,485
2018-05-13T05:04:03.754Z,500
2018-05-13T05:05:03.709Z,495
2018-05-13T05:06:03.995Z,500
2018-05-13T05:07:03.724Z,500
2018-05-13T05:08:03.529Z,510
2018-05-13T05:09:03.654Z,520
2018-05-13T05:10:04.016Z,525
2018-05-13T05:11:04.077Z,530
2018-05-13T05:12:03.734Z,535
2018-05-13T05:13:04.031Z,545
2018-05-13T05:14:03.771Z,545
2018-05-13T05:15:03.542Z,550
2018-05-13T05:16:03.517Z,555
2018-05-13T05:17:04.056Z,555
2018-05-13T05:18:03.762Z,560
2018-05-13T05:19:03.808Z,560
2018-05-13T05:20:03.790Z,570
2018-05-13T05:21:04.078Z,570
2018-05-13T05:22:04.090Z,575
2018-05-13T05:23:03.807Z,595
2018-05-13T05:24:03.597Z,610
2018-05-13T05:25:04.106Z,625
2018-05-13T05:26:04.096Z,635
2018-05-13T05:27:04.082Z,635
2018-05-13T05:28:04.163Z,640
2018-05-13T05:29:03.864Z,655
2018-05-13T05:30:04.129Z,680
2018-05-13T05:31:04.153Z,700
2018-05-13T05:32:04.108Z,720
2018-05-13T05:33:04.146Z,750
2018-05-13T05:34:04.194Z,760
2018-05-13T05:35:03.884Z,770
2018-05-13T05:36:04.201Z,790
2018-05-13T05:37:03.898Z,795
2018-05-13T05:38:03.919Z,805
2018-05-13T05:39:04.158Z,815
2018-05-13T05:40:03.955Z,825
2018-05-13T05:41:03.957Z,825
2018-05-13T05:42:03.689Z,845
2018-05-13T05:43:04.204Z,840
2018-05-13T05:44:03.933Z,840
2018-05-13T05:45:03.979Z,850
2018-05-13T05:46:03.969Z,855
2018-05-13T05:47:04.230Z,865
2018-05-13T05:48:04.016Z,880
2018-05-13T05:49:04.263Z,890
2018-05-13T05:50:04.325Z,905
2018-05-13T05:51:04.011Z,915
2018-05-13T05:52:03.783Z,935
2018-05-13T05:53:03.750Z,935
2018-05-13T05:54:03.794Z,950
2018-05-13T05:55:04.043Z,955
2018-05-13T05:56:04.081Z,960
2018-05-13T05:57:03.815Z,955
2018-05-13T05:58:04.347Z,960
2018-05-13T05:59:04.065Z,965
2018-05-13T06:00:04.076Z,970
2018-05-13T06:01:04.363Z,960
2018-05-13T06:02:04.367Z,960
2018-05-13T06:03:04.153Z,975
2018-05-13T06:04:03.599Z,975
2018-05-13T06:05:04.400Z,990
2018-05-13T06:06:04.129Z,995
2018-05-13T06:07:03.910Z,1005
2018-05-13T06:08:04.469Z,1025
2018-05-13T06:09:04.194Z,1050
2018-05-13T06:10:04.181Z,1075
2018-05-13T06:11:03.952Z,1070
2018-05-13T06:12:04.177Z,1080
2018-05-13T06:13:04.472Z,1100
2018-05-13T06:14:03.961Z,1090
2018-05-13T06:15:04.211Z,1110
2018-05-13T06:16:04.474Z,1125
2018-05-13T06:17:04.517Z,1130
2018-05-13T06:18:04.256Z,1145
2018-05-13T06:19:04.295Z,1145
2018-05-13T06:20:04.504Z,1155
2018-05-13T06:21:04.295Z,1160
2018-05-13T06:22:04.281Z,1190
2018-05-13T06:23:04.581Z,1195
2018-05-13T06:24:04.058Z,1195
2018-05-13T06:25:04.698Z,1185
2018-05-13T06:26:04.685Z,1185
2018-05-13T06:27:04.357Z,1185
2018-05-13T06:28:04.322Z,1180
2018-05-13T06:29:04.096Z,1200
2018-05-13T06:30:04.637Z,1210
2018-05-13T06:31:04.402Z,1230
2018-05-13T06:32:04.843Z,1235
2018-05-13T06:33:04.658Z,1255
2018-05-13T06:34:04.671Z,1270
2018-05-13T06:35:04.657Z,1290
2018-05-13T06:36:04.734Z,1305
2018-05-13T06:37:04.696Z,1315
2018-05-13T06:38:04.471Z,1325
2018-05-13T06:39:04.489Z,1350
2018-05-13T06:40:04.486Z,1370
2018-05-13T06:41:04.793Z,1405
2018-05-13T06:42:04.502Z,1415
2018-05-13T06:43:04.797Z,1420
2018-05-13T06:44:04.761Z,1435
2018-05-13T06:45:04.536Z,1445
2018-05-13T06:46:04.811Z,1445
2018-05-13T06:47:04.584Z,1460
2018-05-13T06:48:04.858Z,1465
2018-05-13T06:49:04.844Z,1475
2018-05-13T06:50:04.338Z,1490
2018-05-13T06:51:04.797Z,1500
2018-05-13T06:52:04.645Z,1505
2018-05-13T06:53:04.638Z,1510
2018-05-13T06:54:04.678Z,1510
2018-05-13T06:55:04.396Z,1505
2018-05-13T06:56:04.443Z,1520
2018-05-13T06:57:04.412Z,1540
2018-05-13T06:58:04.703Z,1540
2018-05-13T06:59:04.437Z,1520
2018-05-13T07:00:05.007Z,1450
2018-05-13T07:01:05.005Z,1410
2018-05-13T07:02:04.758Z,1415
2018-05-13T07:03:04.759Z,1425
2018-05-13T07:04:04.801Z,1445
2018-05-13T07:05:05.135Z,1465
2018-05-13T07:06:05.055Z,1490
2018-05-13T07:07:04.785Z,1525
2018-05-13T07:08:05.107Z,1535
2018-05-13T07:09:05.078Z,1540
2018-05-13T07:10:05.147Z,1470
2018-05-13T07:11:05.114Z,1385
2018-05-13T07:12:05.161Z,1360
2018-05-13T07:13:05.132Z,1360
2018-05-13T07:14:05.172Z,1365
2018-05-13T07:15:04.651Z,1365
2018-05-13T07:16:04.954Z,1355
2018-05-13T07:17:04.955Z,1360
2018-05-13T07:18:04.961Z,1375
2018-05-13T07:19:05.250Z,1385
2018-05-13T07:20:05.266Z,1405
2018-05-13T07:21:04.747Z,1405
2018-05-13T07:22:05.033Z,1420
2018-05-13T07:23:05.041Z,1415
2018-05-13T07:24:05.091Z,1405
2018-05-13T07:25:05.304Z,1410
2018-05-13T07:26:05.360Z,1415
2018-05-13T07:27:05.370Z,1425
2018-05-13T07:28:05.131Z,1450
2018-05-13T07:29:05.363Z,1450
2018-05-13T07:30:04.891Z,1460
2018-05-13T07:31:05.439Z,1485
2018-05-13T07:32:05.131Z,1500
2018-05-13T07:33:04.904Z,1485
2018-05-13T07:34:05.171Z,1475
2018-05-13T07:35:05.206Z,1475
2018-05-13T07:36:05.478Z,1485
2018-05-13T07:37:05.200Z,1495
2018-05-13T07:38:05.227Z,1505
2018-05-13T07:39:04.967Z,1505
2018-05-13T07:40:04.757Z,1510
2018-05-13T07:41:05.513Z,1515
2018-05-13T07:42:05.565Z,1525
2018-05-13T07:43:05.552Z,1520
2018-05-13T07:44:05.331Z,1540
2018-05-13T07:45:05.336Z,1525
2018-05-13T07:46:05.596Z,1525
2018-05-13T07:47:05.331Z,1525
2018-05-13T07:48:05.639Z,1520
2018-05-13T07:49:05.635Z,1560
2018-05-13T07:50:04.864Z,1610
2018-05-13T07:51:05.634Z,1665
2018-05-13T07:52:05.469Z,1700
2018-05-13T07:53:05.420Z,1735
2018-05-13T07:54:05.427Z,1765
2018-05-13T07:55:05.423Z,1775
2018-05-13T07:56:05.745Z,1785
2018-05-13T07:57:05.702Z,1805
2018-05-13T07:58:05.999Z,1805
2018-05-13T07:59:05.725Z,1800
2018-05-13T08:00:05.263Z,1805
2018-05-13T08:01:05.752Z,1790
2018-05-13T08:02:05.803Z,1765
2018-05-13T08:03:05.782Z,1755
2018-05-13T08:04:05.834Z,1730
2018-05-13T08:05:05.570Z,1725
2018-05-13T08:06:05.880Z,1745
2018-05-13T08:07:05.303Z,1675
2018-05-13T08:08:05.621Z,1650
2018-05-13T08:09:05.726Z,1600
2018-05-13T08:10:05.870Z,1475
2018-05-13T08:11:05.912Z,1480
2018-05-13T08:12:05.624Z,1455
2018-05-13T08:13:05.663Z,1490
2018-05-13T08:14:05.786Z,1485
2018-05-13T08:15:05.697Z,1505
2018-05-13T08:16:05.922Z,1560
2018-05-13T08:17:05.736Z,1560
2018-05-13T08:18:05.967Z,1590
2018-05-13T08:19:06.010Z,1595
2018-05-13T08:20:05.995Z,1620
2018-05-13T08:21:06.010Z,1605
2018-05-13T08:22:06.025Z,1655
2018-05-13T08:23:05.748Z,1720
2018-05-13T08:24:05.750Z,1775
2018-05-13T08:25:06.066Z,1815
2018-05-13T08:26:05.812Z,1820
2018-05-13T08:27:05.580Z,1855
2018-05-13T08:28:05.540Z,1855
2018-05-13T08:29:05.841Z,1855
2018-05-13T08:30:05.817Z,1845
2018-05-13T08:31:06.129Z,1840
2018-05-13T08:32:05.837Z,1840
2018-05-13T08:33:05.908Z,1860
2018-05-13T08:34:05.885Z,1865
2018-05-13T08:35:05.648Z,1885
2018-05-13T08:36:05.884Z,1890
2018-05-13T08:37:05.919Z,1890
2018-05-13T08:38:05.949Z,1890
2018-05-13T08:39:05.953Z,1880
2018-05-13T08:40:06.234Z,1860
2018-05-13T08:41:06.217Z,1655
2018-05-13T08:42:05.803Z,915
2018-05-13T08:43:06.228Z,365
2018-05-13T08:44:06.043Z,350
2018-05-13T08:45:05.999Z,345
2018-05-13T08:46:05.769Z,340
2018-05-13T08:47:06.320Z,340
2018-05-13T08:48:06.002Z,335
2018-05-13T08:49:06.069Z,335
2018-05-13T08:50:06.327Z,335
2018-05-13T08:51:06.338Z,335
2018-05-13T08:52:06.036Z,330
2018-05-13T08:53:06.066Z,330
2018-05-13T08:54:06.677Z,325
2018-05-13T08:55:06.110Z,325
2018-05-13T08:56:05.861Z,325
2018-05-13T08:57:06.095Z,320
2018-05-13T08:58:06.113Z,320
2018-05-13T08:59:06.084Z,315
2018-05-13T09:00:06.180Z,315
2018-05-13T09:01:06.109Z,315
2018-05-13T09:02:06.185Z,315
2018-05-13T09:03:06.401Z,310
2018-05-13T09:04:06.167Z,310
2018-05-13T09:05:06.416Z,310
2018-05-13T09:06:06.409Z,305
2018-05-13T09:07:06.134Z,305
2018-05-13T09:08:06.240Z,305
2018-05-13T09:09:06.001Z,305
2018-05-13T09:10:06.425Z,305
2018-05-13T09:11:06.363Z,305
2018-05-13T09:12:06.487Z,305
2018-05-13T09:13:06.421Z,305
2018-05-13T09:14:06.597Z,305
2018-05-13T09:15:06.153Z,300
2018-05-13T09:16:06.213Z,300
2018-05-13T09:17:06.169Z,300
2018-05-13T09:18:06.214Z,295
2018-05-13T09:19:06.183Z,295
2018-05-13T09:20:06.251Z,295
2018-05-13T09:21:06.488Z,295
2018-05-13T09:22:06.222Z,290
2018-05-13T09:23:06.198Z,290
2018-05-13T09:24:06.001Z,285
2018-05-13T09:25:06.233Z,285
2018-05-13T09:26:06.203Z,285
2018-05-13T09:27:06.193Z,285
2018-05-13T09:28:06.188Z,280
2018-05-13T09:29:06.237Z,280
2018-05-13T09:30:06.485Z,280
2018-05-13T09:31:05.992Z,275
2018-05-13T09:32:05.938Z,275
2018-05-13T09:33:06.330Z,275
2018-05-13T09:34:06.188Z,275
2018-05-13T09:35:05.730Z,270
2018-05-13T09:36:06.224Z,270
2018-05-13T09:37:06.511Z,270
2018-05-13T09:38:06.499Z,270
2018-05-13T09:39:06.217Z,270
2018-05-13T09:40:06.537Z,270
2018-05-13T09:41:06.247Z,270
2018-05-13T09:42:06.499Z,275
2018-05-13T09:43:06.245Z,270
2018-05-13T09:44:06.232Z,270
2018-05-13T09:45:05.994Z,270
2018-05-13T09:46:06.380Z,270
2018-05-13T09:47:06.016Z,265
2018-05-13T09:48:06.483Z,265
2018-05-13T09:49:06.517Z,265
2018-05-13T09:50:06.218Z,265
2018-05-13T09:51:06.533Z,260
2018-05-13T09:52:06.527Z,260
2018-05-13T09:53:06.279Z,260
2018-05-13T09:54:06.522Z,260
2018-05-13T09:55:06.267Z,255
2018-05-13T09:56:06.245Z,255
2018-05-13T09:57:06.257Z,255
2018-05-13T09:58:06.262Z,255
2018-05-13T09:59:06.279Z,255
2018-05-13T10:00:06.546Z,250
2018-05-13T10:01:06.519Z,250
2018-05-13T10:02:05.961Z,250
2018-05-13T10:03:06.276Z,250
2018-05-13T10:04:06.478Z,250
2018-05-13T10:05:06.544Z,245
2018-05-13T10:06:06.499Z,245
2018-05-13T10:07:06.292Z,245
2018-05-13T10:08:06.507Z,240
2018-05-13T10:09:06.565Z,245
2018-05-13T10:10:06.303Z,240
2018-05-13T10:11:06.566Z,240
2018-05-13T10:12:06.008Z,240
2018-05-13T10:13:06.542Z,240
2018-05-13T10:14:06.290Z,235
2018-05-13T10:15:06.299Z,235
2018-05-13T10:16:06.583Z,235
2018-05-13T10:17:06.297Z,235
2018-05-13T10:18:06.298Z,235
2018-05-13T10:19:06.285Z,235
2018-05-13T10:20:06.602Z,230
2018-05-13T10:21:06.294Z,230
2018-05-13T10:22:06.327Z,230
2018-05-13T10:23:06.536Z,225
2018-05-13T10:24:06.334Z,225
2018-05-13T10:25:06.294Z,225
2018-05-13T10:26:06.316Z,225
2018-05-13T10:27:06.303Z,230
2018-05-13T10:28:06.348Z,220
2018-05-13T10:29:06.042Z,220
2018-05-13T10:30:06.597Z,220
2018-05-13T10:31:06.600Z,220
2018-05-13T10:32:06.346Z,220
2018-05-13T10:33:06.569Z,220
2018-05-13T10:34:06.320Z,215
2018-05-13T10:35:06.306Z,215
2018-05-13T10:36:06.380Z,220
2018-05-13T10:37:06.313Z,210
2018-05-13T10:38:06.366Z,215
2018-05-13T10:39:06.316Z,210
2018-05-13T10:40:06.378Z,210
2018-05-13T10:41:06.575Z,215
2018-05-13T10:42:06.112Z,210
2018-05-13T10:43:06.352Z,210
2018-05-13T10:44:06.560Z,205
2018-05-13T10:45:06.594Z,205
2018-05-13T10:46:06.347Z,205
2018-05-13T10:47:06.362Z,205
2018-05-13T10:48:06.648Z,205
2018-05-13T10:49:06.402Z,205
2018-05-13T10:50:06.378Z,205
2018-05-13T10:51:06.611Z,200
2018-05-13T10:52:06.137Z,200
2018-05-13T10:53:06.620Z,200
2018-05-13T10:54:06.360Z,200
2018-05-13T10:55:06.624Z,205
2018-05-13T10:56:06.355Z,200
2018-05-13T10:57:06.408Z,200
2018-05-13T10:58:06.357Z,200
2018-05-13T10:59:06.383Z,200
2018-05-13T11:00:06.352Z,195
2018-05-13T11:01:06.394Z,195
2018-05-13T11:02:06.374Z,195
2018-05-13T11:03:06.401Z,195
2018-05-13T11:04:06.188Z,195
2018-05-13T11:05:06.123Z,195
2018-05-13T11:06:06.650Z,195
2018-05-13T11:07:06.609Z,195
2018-05-13T11:08:06.833Z,190
2018-05-13T11:09:06.639Z,190
2018-05-13T11:10:06.693Z,190
2018-05-13T11:11:06.633Z,190
2018-05-13T11:12:06.416Z,190
2018-05-13T11:13:06.619Z,190
2018-05-13T11:14:06.393Z,190
2018-05-13T11:15:06.415Z,190
2018-05-13T11:16:06.693Z,190
2018-05-13T11:17:06.418Z,190
2018-05-13T11:18:06.158Z,190
2018-05-13T11:19:06.392Z,190
2018-05-13T11:20:06.165Z,190
2018-05-13T11:21:06.414Z,190
2018-05-13T11:22:06.416Z,190
2018-05-13T11:23:06.378Z,190
2018-05-13T11:24:06.450Z,190
2018-05-13T11:25:06.430Z,185
2018-05-13T11:26:06.200Z,185
2018-05-13T11:27:06.140Z,185
2018-05-13T11:28:06.195Z,185
2018-05-13T11:29:06.653Z,185
2018-05-13T11:30:06.170Z,190
2018-05-13T11:31:06.666Z,185
2018-05-13T11:32:06.717Z,185
2018-05-13T11:33:06.444Z,180
2018-05-13T11:34:06.688Z,180
2018-05-13T11:35:06.178Z,180
2018-05-13T11:36:06.409Z,180
2018-05-13T11:37:06.446Z,180
2018-05-13T11:38:06.452Z,175
2018-05-13T11:39:06.218Z,175
2018-05-13T11:40:06.273Z,180
2018-05-13T11:41:06.723Z,175
2018-05-13T11:42:06.688Z,180
2018-05-13T11:43:06.461Z,175
2018-05-13T11:44:06.172Z,175
2018-05-13T11:45:06.205Z,175
2018-05-13T11:46:05.953Z,180
2018-05-13T11:47:06.451Z,175
2018-05-13T11:48:06.789Z,175
2018-05-13T11:49:06.461Z,175
2018-05-13T11:50:06.195Z,175
2018-05-13T11:51:06.717Z,175
2018-05-13T11:52:06.701Z,180
2018-05-13T11:53:06.730Z,180
2018-05-13T11:54:06.720Z,180
2018-05-13T11:55:06.510Z,180
2018-05-13T11:56:06.225Z,180
2018-05-13T11:57:06.501Z,180
2018-05-13T11:58:06.701Z,180
2018-05-13T11:59:05.976Z,180
2018-05-13T12:00:06.207Z,175
2018-05-13T12:01:06.505Z,180
2018-05-13T12:02:06.937Z,175
2018-05-13T12:03:06.497Z,175
2018-05-13T12:04:06.206Z,175
2018-05-13T12:05:06.740Z,175
2018-05-13T12:06:06.739Z,175
2018-05-13T12:07:06.516Z,175
2018-05-13T12:08:06.513Z,180
2018-05-13T12:09:06.489Z,175
2018-05-13T12:10:06.767Z,175
2018-05-13T12:11:06.511Z,180
2018-05-13T12:12:06.746Z,180
2018-05-13T12:13:06.519Z,175
2018-05-13T12:14:06.471Z,175
2018-05-13T12:15:06.341Z,175
2018-05-13T12:16:06.587Z,175
2018-05-13T12:17:06.793Z,175
2018-05-13T12:18:06.506Z,175
2018-05-13T12:19:06.531Z,175
2018-05-13T12:20:06.505Z,175
2018-05-13T12:21:06.406Z,175
2018-05-13T12:22:06.508Z,175
2018-05-13T12:23:06.532Z,175
2018-05-13T12:24:06.500Z,175
2018-05-13T12:25:06.868Z,175
2018-05-13T12:26:06.519Z,175
2018-05-13T12:27:06.564Z,175
2018-05-13T12:28:06.502Z,175
2018-05-13T12:29:07.278Z,175
2018-05-13T12:30:06.251Z,175
2018-05-13T12:31:06.818Z,175
2018-05-13T12:32:06.252Z,175
2018-05-13T12:33:06.300Z,175
2018-05-13T12:34:06.554Z,175
2018-05-13T12:35:06.289Z,175
2018-05-13T12:36:06.529Z,175
2018-05-13T12:37:06.285Z,175
2018-05-13T12:38:07.101Z,175
2018-05-13T12:39:06.531Z,175
2018-05-13T12:40:06.512Z,175
2018-05-13T12:41:06.327Z,175
2018-05-13T12:42:06.820Z,175
2018-05-13T12:43:06.055Z,175
2018-05-13T12:44:06.524Z,175
2018-05-13T12:45:06.301Z,175
2018-05-13T12:46:06.014Z,175
2018-05-13T12:47:06.850Z,175
2018-05-13T12:48:06.780Z,175
2018-05-13T12:49:06.671Z,175
2018-05-13T12:50:06.896Z,175
2018-05-13T12:51:06.319Z,175
2018-05-13T12:52:06.551Z,175
2018-05-13T12:53:06.808Z,175
2018-05-13T12:54:06.823Z,175
2018-05-13T12:55:06.573Z,175
2018-05-13T12:56:06.588Z,180
2018-05-13T12:57:06.564Z,180
2018-05-13T12:58:06.568Z,180
2018-05-13T12:59:06.300Z,180
2018-05-13T13:00:06.336Z,180
2018-05-13T13:01:06.832Z,180
2018-05-13T13:02:06.583Z,180
2018-05-13T13:03:06.591Z,180
2018-05-13T13:04:06.561Z,180
2018-05-13T13:05:06.359Z,180
2018-05-13T13:06:06.583Z,180
2018-05-13T13:07:06.089Z,180
2018-05-13T13:08:06.318Z,180
2018-05-13T13:09:06.680Z,180
2018-05-13T13:10:06.585Z,180
2018-05-13T13:11:06.616Z,180
2018-05-13T13:12:06.376Z,180
2018-05-13T13:13:06.498Z,180
2018-05-13T13:14:06.867Z,180
2018-05-13T13:15:06.386Z,180
2018-05-13T13:16:06.632Z,180
2018-05-13T13:17:06.611Z,180
2018-05-13T13:18:06.630Z,175
2018-05-13T13:19:06.605Z,175
2018-05-13T13:20:06.908Z,175
2018-05-13T13:21:06.837Z,175
2018-05-13T13:22:06.971Z,175
2018-05-13T13:23:06.856Z,175
2018-05-13T13:24:06.904Z,175
2018-05-13T13:25:06.646Z,175
2018-05-13T13:26:07.072Z,175
2018-05-13T13:27:06.605Z,175
2018-05-13T13:28:06.406Z,175
2018-05-13T13:29:06.361Z,175
2018-05-13T13:30:06.382Z,175
2018-05-13T13:31:06.610Z,175
2018-05-13T13:32:06.684Z,175
2018-05-13T13:33:06.376Z,175
2018-05-13T13:34:06.921Z,175
2018-05-13T13:35:06.876Z,175
2018-05-13T13:36:06.401Z,175
2018-05-13T13:37:06.867Z,175
2018-05-13T13:38:06.640Z,175
2018-05-13T13:39:06.637Z,175
2018-05-13T13:40:06.676Z,180
2018-05-13T13:41:06.397Z,175
2018-05-13T13:42:06.649Z,175
2018-05-13T13:43:06.377Z,175
2018-05-13T13:44:06.651Z,175
2018-05-13T13:45:06.950Z,175
2018-05-13T13:46:06.919Z,170
2018-05-13T13:47:06.442Z,170
2018-05-13T13:48:06.890Z,170
2018-05-13T13:49:06.922Z,170
2018-05-13T13:50:06.882Z,170
2018-05-13T13:51:06.705Z,170
2018-05-13T13:52:06.673Z,170
2018-05-13T13:53:06.161Z,170
2018-05-13T13:54:06.664Z,170
2018-05-13T13:55:06.924Z,170
2018-05-13T13:56:06.956Z,170
2018-05-13T13:57:06.435Z,170
2018-05-13T13:58:06.425Z,170
2018-05-13T13:59:06.412Z,170
2018-05-13T14:00:06.658Z,170
2018-05-13T14:01:06.193Z,170
2018-05-13T14:02:06.974Z,170
2018-05-13T14:03:06.979Z,170
2018-05-13T14:04:06.679Z,170
2018-05-13T14:05:06.967Z,170